createdAt,value
2022-11-15T00:01:19.213Z,27.80
2022-11-15T00:03:47.916Z,28.50
2022-11-15T00:06:17.425Z,26.60
2022-11-15T00:08:45.586Z,28.53
2022-11-15T00:11:14.787Z,27.90
2022-11-15T00:13:43.188Z,27.17
2022-11-15T00:16:12.222Z,28.23
2022-11-15T00:18:40.723Z,28.70
2022-11-15T00:21:11.561Z,27.23
2022-11-15T00:23:41.094Z,27.97
2022-11-15T00:26:10.009Z,29.67
2022-11-15T00:28:38.110Z,29.37
2022-11-15T00:31:08.169Z,37.63
2022-11-15T00:33:36.573Z,26.33
2022-11-15T00:36:05.788Z,27.97
2022-11-15T00:38:34.845Z,26.57
2022-11-15T00:41:09.546Z,28.37
2022-11-15T00:43:40.848Z,28.70
2022-11-15T00:46:10.815Z,29.57
2022-11-15T00:48:39.324Z,27.57
2022-11-15T00:51:07.623Z,28.80
2022-11-15T00:53:35.897Z,28.90
2022-11-15T00:56:05.608Z,27.57
2022-11-15T00:58:33.739Z,28.00
2022-11-15T01:01:09.040Z,28.93
2022-11-15T01:03:37.592Z,29.07
2022-11-15T01:06:06.220Z,28.80
2022-11-15T01:08:34.525Z,29.80
2022-11-15T01:11:05.268Z,27.97
2022-11-15T01:13:34.438Z,29.07
2022-11-15T01:16:08.700Z,32.13
2022-11-15T01:18:36.799Z,28.63
2022-11-15T01:21:08.585Z,29.83
2022-11-15T01:23:37.027Z,29.53
2022-11-15T01:26:08.976Z,28.83
2022-11-15T01:28:39.573Z,29.10
2022-11-15T01:31:09.375Z,29.67
2022-11-15T01:33:37.985Z,29.63
2022-11-15T01:36:07.096Z,31.77
2022-11-15T01:38:35.434Z,32.10
2022-11-15T01:41:03.583Z,29.77
2022-11-15T01:43:35.140Z,32.33
2022-11-15T01:46:08.116Z,31.20
2022-11-15T01:48:37.319Z,32.43
2022-11-15T01:51:13.790Z,31.33
2022-11-15T01:53:45.719Z,31.70
2022-11-15T01:56:17.686Z,30.80
2022-11-15T01:58:47.851Z,31.30
2022-11-15T02:01:16.644Z,31.40
2022-11-15T02:03:52.640Z,32.47
2022-11-15T02:06:21.560Z,29.50
2022-11-15T02:08:49.745Z,31.80
2022-11-15T02:11:17.839Z,30.23
2022-11-15T02:13:47.571Z,30.47
2022-11-15T02:16:24.276Z,32.50
2022-11-15T02:18:59.318Z,30.63
2022-11-15T02:21:34.522Z,30.03
2022-11-15T02:24:38.586Z,29.97
2022-11-15T02:27:35.779Z,30.00
2022-11-15T02:30:27.030Z,28.40
2022-11-15T02:32:59.674Z,28.30
2022-11-15T02:35:39.632Z,27.17
2022-11-15T02:38:14.628Z,26.83
2022-11-15T02:40:50.434Z,30.20
2022-11-15T02:43:48.142Z,29.37
2022-11-15T02:46:22.894Z,28.87
2022-11-15T02:48:51.398Z,27.60
2022-11-15T02:51:20.541Z,28.57
2022-11-15T02:53:48.746Z,27.97
2022-11-15T02:56:16.885Z,29.00
2022-11-15T02:59:11.999Z,28.83
2022-11-15T03:01:51.855Z,26.53
2022-11-15T03:04:29.279Z,28.63
2022-11-15T03:07:02.803Z,25.87
2022-11-15T03:09:37.192Z,28.37
2022-11-15T03:12:10.033Z,26.97
2022-11-15T03:14:45.203Z,28.47
2022-11-15T03:17:20.113Z,26.10
2022-11-15T03:19:51.582Z,29.77
2022-11-15T03:22:23.174Z,28.07
2022-11-15T03:24:56.358Z,29.13
2022-11-15T03:27:27.755Z,28.70
2022-11-15T03:29:59.540Z,36.63
2022-11-15T03:32:34.049Z,27.67
2022-11-15T03:35:07.362Z,26.17
2022-11-15T03:37:39.444Z,27.67
2022-11-15T03:40:08.717Z,26.80
2022-11-15T03:42:40.928Z,25.90
2022-11-15T03:45:17.327Z,24.97
2022-11-15T03:47:51.403Z,26.77
2022-11-15T03:50:21.874Z,27.57
2022-11-15T03:52:51.269Z,24.53
2022-11-15T03:55:21.720Z,27.30
2022-11-15T03:57:53.281Z,28.80
2022-11-15T04:00:21.510Z,28.13
2022-11-15T04:02:50.975Z,29.00
2022-11-15T04:05:19.333Z,26.97
2022-11-15T04:07:47.442Z,28.80
2022-11-15T04:10:16.309Z,25.40
2022-11-15T04:12:48.229Z,26.07
2022-11-15T04:15:18.472Z,25.90
2022-11-15T04:17:48.514Z,25.83
2022-11-15T04:20:37.302Z,23.03
2022-11-15T04:23:25.317Z,23.67
2022-11-15T04:25:56.060Z,23.33
2022-11-15T04:28:24.793Z,22.67
2022-11-15T04:30:52.973Z,22.70
2022-11-15T04:33:21.420Z,21.37
2022-11-15T04:36:04.996Z,21.77
2022-11-15T04:38:33.204Z,28.73
2022-11-15T04:41:01.448Z,23.83
2022-11-15T04:43:30.018Z,29.43
2022-11-15T04:45:58.488Z,28.10
2022-11-15T04:48:26.608Z,26.13
2022-11-15T04:50:56.099Z,23.13
2022-11-15T04:53:24.299Z,22.87
2022-11-15T04:55:52.404Z,23.87
2022-11-15T04:58:20.508Z,22.50
2022-11-15T05:00:48.704Z,23.30
2022-11-15T05:03:34.432Z,22.63
2022-11-15T05:06:04.281Z,23.63
2022-11-15T05:08:32.399Z,23.37
2022-11-15T05:11:00.521Z,23.47
2022-11-15T05:13:28.798Z,24.33
2022-11-15T05:15:57.096Z,22.83
2022-11-15T05:18:25.203Z,22.83
2022-11-15T05:20:53.328Z,23.63
2022-11-15T05:23:22.807Z,22.57
2022-11-15T05:25:50.897Z,23.60
2022-11-15T05:28:18.998Z,22.10
2022-11-15T05:30:47.093Z,25.90
2022-11-15T05:33:15.182Z,23.73
2022-11-15T05:35:47.195Z,24.07
2022-11-15T05:38:15.318Z,22.00
2022-11-15T05:40:44.837Z,23.03
2022-11-15T05:43:13.200Z,24.03
2022-11-15T05:45:41.315Z,23.10
2022-11-15T05:48:11.562Z,23.10
2022-11-15T05:50:41.769Z,23.57
2022-11-15T05:53:10.237Z,24.43
2022-11-15T05:55:40.294Z,24.50
2022-11-15T05:58:09.913Z,22.83
2022-11-15T06:00:38.205Z,24.00
2022-11-15T06:03:06.313Z,23.93
2022-11-15T06:05:34.415Z,24.33
2022-11-15T06:08:02.693Z,23.57
2022-11-15T06:10:30.774Z,21.57
2022-11-15T06:13:00.164Z,22.13
2022-11-15T06:15:29.670Z,21.50
2022-11-15T06:17:59.492Z,21.63
2022-11-15T06:20:27.863Z,21.50
2022-11-15T06:22:59.999Z,22.50
2022-11-15T06:25:28.902Z,22.50
2022-11-15T06:27:58.643Z,22.43
2022-11-15T06:30:27.674Z,24.70
2022-11-15T06:33:03.555Z,23.27
2022-11-15T06:35:32.832Z,25.93
2022-11-15T06:38:05.798Z,24.73
2022-11-15T06:40:37.331Z,22.73
2022-11-15T06:43:06.449Z,23.30
2022-11-15T06:45:35.059Z,23.40
2022-11-15T06:48:04.650Z,23.57
2022-11-15T06:50:32.751Z,21.50
2022-11-15T06:53:04.030Z,22.23
2022-11-15T06:55:32.281Z,22.43
2022-11-15T06:58:00.390Z,23.07
2022-11-15T07:00:28.531Z,23.10
2022-11-15T07:02:56.650Z,22.43
2022-11-15T07:05:26.143Z,24.57
2022-11-15T07:07:55.303Z,22.93
2022-11-15T07:10:25.214Z,21.53
2022-11-15T07:12:53.733Z,22.43
2022-11-15T07:15:24.110Z,22.07
2022-11-15T07:17:52.278Z,22.50
2022-11-15T07:20:20.585Z,22.27
2022-11-15T07:22:50.129Z,25.90
2022-11-15T07:25:18.454Z,25.10
2022-11-15T07:27:55.813Z,25.27
2022-11-15T07:30:24.104Z,26.70
2022-11-15T07:32:55.246Z,24.13
2022-11-15T07:35:23.502Z,23.90
2022-11-15T07:38:00.901Z,26.17
2022-11-15T07:40:30.765Z,22.07
2022-11-15T07:43:02.103Z,21.77
2022-11-15T07:45:30.817Z,21.70
2022-11-15T07:47:59.286Z,22.20
2022-11-15T07:50:27.696Z,23.53
2022-11-15T07:52:56.738Z,22.70
2022-11-15T07:55:26.929Z,23.13
2022-11-15T07:57:55.201Z,24.03
2022-11-15T08:00:23.336Z,22.83
2022-11-15T08:02:51.503Z,22.27
2022-11-15T08:05:19.711Z,22.67
2022-11-15T08:07:47.805Z,22.70
2022-11-15T08:10:17.821Z,22.90
2022-11-15T08:12:47.413Z,22.20
2022-11-15T08:15:15.698Z,20.63
2022-11-15T08:17:43.802Z,19.83
2022-11-15T08:20:12.897Z,22.57
2022-11-15T08:22:41.027Z,21.00
2022-11-15T08:25:09.463Z,23.13
2022-11-15T08:27:37.601Z,21.73
2022-11-15T08:30:08.457Z,20.93
2022-11-15T08:32:36.655Z,21.40
2022-11-15T08:35:05.147Z,22.60
2022-11-15T08:37:33.236Z,22.63
2022-11-15T08:40:01.485Z,22.27
2022-11-15T08:42:29.607Z,21.50
2022-11-15T08:44:57.731Z,20.57
2022-11-15T08:47:27.495Z,20.70
2022-11-15T08:49:55.707Z,21.27
2022-11-15T08:52:23.984Z,21.27
2022-11-15T08:54:52.107Z,20.43
2022-11-15T08:57:20.444Z,21.70
2022-11-15T08:59:48.571Z,22.87
2022-11-15T09:02:17.096Z,23.43
2022-11-15T09:04:46.835Z,20.73
2022-11-15T09:07:16.027Z,22.37
2022-11-15T09:09:44.370Z,21.60
2022-11-15T09:12:12.623Z,22.30
2022-11-15T09:14:40.798Z,21.13
2022-11-15T09:17:10.594Z,21.23
2022-11-15T09:19:39.004Z,23.80
2022-11-15T09:22:10.039Z,22.20
2022-11-15T09:24:38.171Z,22.67
2022-11-15T09:27:06.282Z,22.87
2022-11-15T09:29:34.878Z,21.97
2022-11-15T09:32:03.010Z,23.33
2022-11-15T09:34:31.107Z,22.80
2022-11-15T09:36:59.260Z,22.53
2022-11-15T09:39:28.756Z,23.93
2022-11-15T09:42:14.361Z,23.83
2022-11-15T09:44:56.442Z,24.83
2022-11-15T09:48:06.030Z,24.07
2022-11-15T09:50:40.882Z,24.17
2022-11-15T09:53:15.042Z,25.10
2022-11-15T09:55:51.102Z,24.63
2022-11-15T09:58:29.339Z,23.63
2022-11-15T10:01:01.030Z,23.50
2022-11-15T10:03:33.611Z,21.50
2022-11-15T10:06:04.130Z,21.90
2022-11-15T10:08:48.347Z,21.03
2022-11-15T10:11:36.731Z,21.77
2022-11-15T10:14:12.750Z,22.00
2022-11-15T10:17:04.121Z,25.90
2022-11-15T10:19:37.746Z,22.43
2022-11-15T10:22:20.102Z,24.10
2022-11-15T10:24:49.074Z,24.23
2022-11-15T10:27:20.198Z,23.63
2022-11-15T10:29:49.845Z,22.90
2022-11-15T10:32:20.440Z,22.73
2022-11-15T10:34:49.149Z,20.37
2022-11-15T10:37:28.921Z,18.23
2022-11-15T10:40:06.014Z,19.40
2022-11-15T10:42:35.583Z,21.03
2022-11-15T10:45:04.114Z,19.80
2022-11-15T10:47:38.954Z,22.23
2022-11-15T10:50:27.112Z,20.37
2022-11-15T10:52:55.743Z,20.27
2022-11-15T10:55:28.345Z,19.20
2022-11-15T10:58:05.733Z,19.30
2022-11-15T11:00:37.364Z,19.93
2022-11-15T11:03:08.274Z,20.90
2022-11-15T11:05:42.260Z,20.57
2022-11-15T11:08:24.321Z,20.50
2022-11-15T11:11:01.301Z,20.57
2022-11-15T11:13:35.210Z,22.03
2022-11-15T11:16:19.508Z,26.63
2022-11-15T11:18:54.176Z,29.33
2022-11-15T11:21:33.018Z,22.37
2022-11-15T11:24:10.842Z,22.23
2022-11-15T11:26:50.600Z,23.03
2022-11-15T11:29:35.248Z,20.93
2022-11-15T11:32:15.977Z,19.70
2022-11-15T11:34:56.481Z,21.23
2022-11-15T11:37:32.972Z,22.57
2022-11-15T11:40:26.424Z,21.80
2022-11-15T11:43:02.528Z,21.43
2022-11-15T11:45:50.879Z,22.37
2022-11-15T11:48:28.237Z,22.33
2022-11-15T11:51:03.138Z,23.17
2022-11-15T11:53:40.079Z,23.50
2022-11-15T11:56:16.940Z,23.33
2022-11-15T11:58:48.159Z,22.17
2022-11-15T12:01:24.380Z,21.30
2022-11-15T12:03:58.979Z,23.67
2022-11-15T12:06:34.335Z,22.97
2022-11-15T12:09:09.187Z,24.33
2022-11-15T12:11:44.564Z,22.87
2022-11-15T12:14:21.728Z,24.40
2022-11-15T12:16:51.235Z,22.70
2022-11-15T12:19:19.369Z,25.07
2022-11-15T12:21:52.665Z,26.23
2022-11-15T12:24:25.255Z,24.60
2022-11-15T12:27:03.904Z,23.80
2022-11-15T12:29:37.557Z,23.60
2022-11-15T12:32:19.191Z,24.00
2022-11-15T12:34:50.742Z,25.57
2022-11-15T12:37:56.253Z,26.33
2022-11-15T12:40:33.815Z,23.03
2022-11-15T12:43:38.658Z,24.33
2022-11-15T12:46:08.402Z,23.07
2022-11-15T12:48:55.949Z,23.00
2022-11-15T12:51:46.655Z,24.33
2022-11-15T12:54:54.462Z,25.80
2022-11-15T12:57:37.570Z,23.57
2022-11-15T13:00:45.186Z,26.17
2022-11-15T13:03:28.325Z,25.37
2022-11-15T13:06:06.927Z,24.10
2022-11-15T13:08:56.242Z,26.13
2022-11-15T13:11:52.673Z,22.50
2022-11-15T13:14:44.354Z,26.87
2022-11-15T13:17:33.765Z,24.77
2022-11-15T13:20:23.002Z,26.97
2022-11-15T13:22:53.335Z,24.80
2022-11-15T13:25:37.846Z,25.23
2022-11-15T13:28:19.465Z,25.77
2022-11-15T13:30:53.546Z,26.40
2022-11-15T13:33:24.931Z,27.03
2022-11-15T13:35:56.247Z,26.57
2022-11-15T13:38:31.716Z,27.37
2022-11-15T13:41:01.609Z,27.83
2022-11-15T13:43:33.974Z,27.53
2022-11-15T13:46:15.469Z,26.10
2022-11-15T13:48:44.609Z,24.27
2022-11-15T13:51:19.630Z,24.77
2022-11-15T13:53:53.906Z,24.57
2022-11-15T13:56:23.077Z,23.97
2022-11-15T13:58:51.353Z,23.70
2022-11-15T14:01:21.802Z,24.40
2022-11-15T14:03:54.148Z,22.63
2022-11-15T14:06:24.501Z,23.47
2022-11-15T14:09:06.744Z,22.37
2022-11-15T14:11:35.201Z,22.03
2022-11-15T14:14:16.688Z,21.80
2022-11-15T14:16:46.480Z,22.17
2022-11-15T14:19:35.185Z,20.83
2022-11-15T14:22:18.690Z,21.80
2022-11-15T14:24:50.011Z,19.43
2022-11-15T14:27:20.112Z,19.63
2022-11-15T14:29:49.161Z,21.23
2022-11-15T14:32:20.178Z,20.97
2022-11-15T14:34:48.621Z,21.30
2022-11-15T14:37:26.393Z,20.03
2022-11-15T14:39:56.685Z,23.07
2022-11-15T14:42:25.666Z,20.40
2022-11-15T14:44:54.085Z,21.77
2022-11-15T14:47:22.320Z,20.77
2022-11-15T14:49:50.492Z,19.97
2022-11-15T14:52:31.900Z,19.90
2022-11-15T14:55:03.426Z,20.13
2022-11-15T14:57:31.935Z,19.67
2022-11-15T15:00:00.095Z,20.97
2022-11-15T15:02:29.482Z,21.40
2022-11-15T15:05:02.057Z,19.73
2022-11-15T15:07:30.320Z,19.77
2022-11-15T15:10:24.488Z,19.50
2022-11-15T15:12:48.048Z,19.60
2022-11-15T15:15:17.818Z,21.90
2022-11-15T15:17:46.180Z,21.07
2022-11-15T15:20:14.296Z,21.27
2022-11-15T15:22:42.419Z,20.13
2022-11-15T15:25:23.837Z,21.57
2022-11-15T15:27:53.332Z,21.20
2022-11-15T15:30:21.625Z,20.37
2022-11-15T15:32:49.873Z,20.73
2022-11-15T15:35:19.354Z,20.30
2022-11-15T15:37:48.827Z,19.63
2022-11-15T15:40:19.083Z,21.10
2022-11-15T15:42:47.188Z,21.47
2022-11-15T15:45:17.568Z,20.20
2022-11-15T15:47:46.371Z,21.23
2022-11-15T15:50:24.256Z,19.77
2022-11-15T15:52:53.014Z,19.97
2022-11-15T15:55:21.229Z,21.47
2022-11-15T15:57:49.875Z,20.53
2022-11-15T16:00:20.890Z,21.23
2022-11-15T16:02:49.262Z,21.63
2022-11-15T16:05:18.362Z,21.23
2022-11-15T16:07:47.424Z,31.53
2022-11-15T16:10:22.151Z,21.20
2022-11-15T16:12:50.726Z,21.90
2022-11-15T16:15:20.910Z,22.10
2022-11-15T16:17:52.133Z,21.03
2022-11-15T16:20:38.208Z,26.83
2022-11-15T16:23:09.892Z,21.67
2022-11-15T16:25:42.902Z,26.00
2022-11-15T16:28:21.653Z,26.60
2022-11-15T16:31:00.663Z,19.20
2022-11-15T16:33:28.888Z,18.33
2022-11-15T16:35:57.074Z,17.40
2022-11-15T16:38:25.193Z,18.47
2022-11-15T16:40:54.139Z,18.43
2022-11-15T16:43:22.790Z,20.37
2022-11-15T16:45:52.718Z,18.20
2022-11-15T16:48:25.329Z,17.90
2022-11-15T16:50:56.958Z,17.67
2022-11-15T16:53:25.182Z,17.83
2022-11-15T16:55:53.313Z,17.23
2022-11-15T16:58:21.560Z,23.10
2022-11-15T17:00:54.396Z,20.83
2022-11-15T17:03:23.036Z,19.27
2022-11-15T17:05:51.646Z,18.97
2022-11-15T17:08:20.932Z,17.17
2022-11-15T17:10:49.124Z,17.37
2022-11-15T17:13:17.235Z,19.63
2022-11-15T17:15:45.369Z,18.80
2022-11-15T17:18:15.771Z,18.03
2022-11-15T17:20:44.478Z,17.33
2022-11-15T17:23:15.585Z,17.00
2022-11-15T17:25:44.104Z,17.77
2022-11-15T17:28:12.476Z,18.47
2022-11-15T17:30:43.452Z,18.23
2022-11-15T17:33:11.580Z,19.60
2022-11-15T17:35:41.072Z,16.63
2022-11-15T17:38:09.185Z,18.47
2022-11-15T17:40:37.295Z,17.23
2022-11-15T17:43:06.864Z,17.57
2022-11-15T17:45:35.252Z,18.27
2022-11-15T17:48:03.797Z,18.50
2022-11-15T17:50:31.931Z,18.63
2022-11-15T17:53:01.891Z,20.80
2022-11-15T17:55:29.992Z,18.60
2022-11-15T17:57:58.190Z,16.93
2022-11-15T18:00:26.396Z,17.93
2022-11-15T18:02:54.520Z,18.87
2022-11-15T18:05:22.657Z,16.87
2022-11-15T18:07:51.552Z,16.83
2022-11-15T18:10:21.132Z,16.93
2022-11-15T18:12:49.235Z,16.27
2022-11-15T18:15:19.149Z,16.17
2022-11-15T18:17:47.258Z,16.67
2022-11-15T18:20:15.469Z,16.23
2022-11-15T18:22:43.586Z,16.50
2022-11-15T18:25:11.736Z,15.77
2022-11-15T18:27:41.203Z,16.27
2022-11-15T18:30:10.540Z,15.73
2022-11-15T18:32:38.632Z,16.10
2022-11-15T18:35:07.889Z,16.70
2022-11-15T18:37:36.170Z,16.00
2022-11-15T18:40:04.596Z,17.03
2022-11-15T18:42:33.109Z,16.57
2022-11-15T18:45:02.968Z,15.57
2022-11-15T18:47:31.794Z,15.83
2022-11-15T18:49:59.895Z,15.20
2022-11-15T18:52:28.041Z,16.27
2022-11-15T18:54:56.165Z,14.10
2022-11-15T18:57:24.257Z,23.70
2022-11-15T18:59:52.354Z,29.70
2022-11-15T19:02:21.854Z,35.20
2022-11-15T19:04:49.969Z,23.37
2022-11-15T19:07:18.109Z,45.30
2022-11-15T19:09:46.758Z,37.83
2022-11-15T19:12:14.863Z,20.20
2022-11-15T19:14:43.170Z,21.00
2022-11-15T19:17:11.263Z,18.53
2022-11-15T19:19:40.750Z,21.43
2022-11-15T19:22:08.885Z,18.07
2022-11-15T19:24:36.981Z,15.47
2022-11-15T19:27:05.165Z,16.60
2022-11-15T19:29:33.251Z,16.40
2022-11-15T19:32:02.209Z,18.33
2022-11-15T19:34:30.308Z,17.57
2022-11-15T19:36:59.774Z,19.50
2022-11-15T19:39:27.877Z,17.27
2022-11-15T19:41:56.182Z,16.10
2022-11-15T19:44:26.369Z,15.57
2022-11-15T19:46:54.494Z,20.10
2022-11-15T19:49:22.572Z,22.90
2022-11-15T19:51:50.717Z,17.23
2022-11-15T19:54:20.226Z,20.20
2022-11-15T19:56:48.345Z,16.20
2022-11-15T19:59:17.409Z,16.93
2022-11-15T20:01:45.713Z,15.53
2022-11-15T20:04:13.840Z,15.53
2022-11-15T20:06:43.425Z,15.77
2022-11-15T20:09:14.164Z,14.23
2022-11-15T20:11:44.150Z,13.87
2022-11-15T20:14:13.227Z,15.00
2022-11-15T20:16:41.689Z,14.93
2022-11-15T20:19:12.302Z,15.83
2022-11-15T20:21:40.703Z,17.53
2022-11-15T20:24:09.350Z,15.80
2022-11-15T20:26:37.453Z,16.40
2022-11-15T20:29:07.168Z,16.33
2022-11-15T20:31:35.497Z,16.60
2022-11-15T20:34:03.689Z,20.20
2022-11-15T20:36:31.816Z,16.07
2022-11-15T20:39:00.535Z,16.43
2022-11-15T20:41:29.277Z,16.13
2022-11-15T20:43:57.395Z,15.30
2022-11-15T20:46:26.916Z,15.23
2022-11-15T20:48:55.019Z,16.33
2022-11-15T20:51:23.161Z,17.00
2022-11-15T20:53:51.570Z,15.73
2022-11-15T20:56:22.200Z,16.23
2022-11-15T20:58:51.283Z,14.13
2022-11-15T21:01:23.544Z,14.83
2022-11-15T21:03:53.997Z,14.63
2022-11-15T21:06:22.243Z,13.37
2022-11-15T21:09:08.132Z,14.57
2022-11-15T21:11:53.932Z,11.93
2022-11-15T21:14:22.299Z,11.27
2022-11-15T21:16:50.425Z,11.90
2022-11-15T21:19:24.112Z,11.07
2022-11-15T21:21:56.424Z,11.13
2022-11-15T21:24:24.793Z,12.20
2022-11-15T21:26:53.123Z,11.27
2022-11-15T21:29:21.459Z,11.00
2022-11-15T21:31:51.388Z,11.33
2022-11-15T21:34:21.287Z,10.57
2022-11-15T21:36:49.407Z,11.33
2022-11-15T21:39:17.504Z,11.20
2022-11-15T21:41:45.631Z,12.10
2022-11-15T21:44:13.764Z,12.13
2022-11-15T21:46:41.863Z,12.90
2022-11-15T21:49:10.355Z,11.80
2022-11-15T21:51:39.953Z,13.47
2022-11-15T21:54:08.127Z,13.93
2022-11-15T21:56:36.881Z,12.73
2022-11-15T21:59:05.050Z,12.67
2022-11-15T22:01:50.448Z,14.03
2022-11-15T22:04:18.730Z,13.77
2022-11-15T22:06:49.090Z,13.80
2022-11-15T22:09:17.358Z,14.97
2022-11-15T22:11:45.668Z,15.63
2022-11-15T22:14:14.108Z,17.13
2022-11-15T22:16:42.416Z,16.23
2022-11-15T22:19:10.702Z,15.57
2022-11-15T22:21:40.171Z,15.97
2022-11-15T22:24:10.206Z,16.30
2022-11-15T22:26:38.542Z,16.77
2022-11-15T22:29:06.846Z,15.73
2022-11-15T22:31:35.129Z,16.03
2022-11-15T22:34:03.443Z,15.77
2022-11-15T22:36:47.004Z,16.43
2022-11-15T22:39:21.454Z,17.37
2022-11-15T22:41:49.770Z,17.03
2022-11-15T22:44:18.073Z,17.43
2022-11-15T22:46:46.381Z,16.87
2022-11-15T22:49:14.675Z,18.33
2022-11-15T22:51:42.980Z,16.20
2022-11-15T22:54:11.295Z,16.37
2022-11-15T22:56:40.996Z,17.57
2022-11-15T22:59:09.352Z,16.33
2022-11-15T23:01:37.659Z,17.30
2022-11-15T23:04:06.273Z,17.87
2022-11-15T23:06:34.671Z,17.17
2022-11-15T23:09:03.080Z,17.63
2022-11-15T23:11:48.614Z,16.30
2022-11-15T23:14:18.309Z,16.87
2022-11-15T23:16:46.606Z,17.80
2022-11-15T23:19:15.082Z,17.70
2022-11-15T23:22:02.776Z,17.23
2022-11-15T23:24:31.734Z,17.43
2022-11-15T23:27:01.627Z,16.87
2022-11-15T23:29:31.975Z,17.67
2022-11-15T23:32:17.800Z,18.17
2022-11-15T23:34:47.394Z,17.87
2022-11-15T23:37:16.602Z,18.00
2022-11-15T23:39:44.938Z,17.23
2022-11-15T23:42:20.170Z,18.03
2022-11-15T23:44:51.086Z,18.57
2022-11-15T23:47:20.095Z,16.07
2022-11-15T23:49:48.702Z,15.80
2022-11-15T23:52:17.374Z,16.33
2022-11-15T23:54:45.837Z,16.37
2022-11-15T23:57:14.139Z,17.57
2022-11-15T23:59:44.183Z,16.17
